Time;durP1;ratioP1;P1;durP2;ratioP2;P2;SDS_P1;SDS_P2;PMS_P1;PMS_P2;Temp;Humidity;BMP_temperature;BMP_pressure;BME280_temperature;BME280_humidity;BME280_pressure;Samples;Min_cycle;Max_cycle;Signal;HPM_P1;HPM_P2
2021/12/27 00:00:06;;;;;;;;;;;-0.80;99.90;;;;;;4963122;28;19923;-80
2021/12/27 00:02:37;;;;;;;;;;;-0.80;99.90;;;;;;4954749;28;19919;-78
2021/12/27 00:05:03;;;;;;;;;;;-0.80;99.90;;;;;;4947889;29;20616;-80
2021/12/27 00:07:29;;;;;;;;;;;-0.80;99.90;;;;;;4969427;28;20001;-79
2021/12/27 00:09:55;;;;;;;;;;;-0.80;99.90;;;;;;4952970;28;19960;-80
2021/12/27 00:12:20;;;;;;;;;;;-0.90;99.90;;;;;;4945195;28;20446;-79
2021/12/27 00:14:46;;;;;;;;;;;-0.90;99.90;;;;;;4966149;28;19944;-79
2021/12/27 00:17:12;;;;;;;;;;;-0.90;99.90;;;;;;4983829;28;19977;-80
2021/12/27 00:19:37;;;;;;;;;;;-0.90;99.90;;;;;;4963399;28;19925;-80
2021/12/27 00:22:03;;;;;;;;;;;-0.80;99.90;;;;;;4941004;29;20269;-79
2021/12/27 00:24:29;;;;;;;;;;;-0.80;99.90;;;;;;4954812;29;19914;-81
2021/12/27 00:26:55;;;;;;;;;;;-0.80;99.90;;;;;;4968930;28;19941;-79
2021/12/27 00:29:21;;;;;;;;;;;-0.80;99.90;;;;;;4959528;28;19973;-80
2021/12/27 00:31:47;;;;;;;;;;;-0.80;99.90;;;;;;4958431;28;19933;-80
2021/12/27 00:34:13;;;;;;;;;;;-0.80;99.90;;;;;;4946301;28;19922;-80
2021/12/27 00:36:38;;;;;;;;;;;-0.80;99.90;;;;;;4974633;28;20305;-79
2021/12/27 00:39:04;;;;;;;;;;;-0.80;99.90;;;;;;4967178;28;19969;-80
2021/12/27 00:41:30;;;;;;;;;;;-0.80;99.90;;;;;;4962617;28;19925;-80
2021/12/27 00:43:55;;;;;;;;;;;-0.80;99.90;;;;;;4980563;28;19961;-79
2021/12/27 00:46:21;;;;;;;;;;;-0.80;99.90;;;;;;4970664;28;19922;-79
2021/12/27 00:48:46;;;;;;;;;;;-0.80;99.90;;;;;;4970298;28;19922;-79
2021/12/27 00:51:12;;;;;;;;;;;-0.80;99.90;;;;;;4955240;28;19957;-80
2021/12/27 00:53:37;;;;;;;;;;;-0.80;99.90;;;;;;4965827;28;20347;-80
2021/12/27 00:56:03;;;;;;;;;;;-0.80;99.90;;;;;;4955425;28;19933;-80
2021/12/27 00:58:29;;;;;;;;;;;-0.80;99.90;;;;;;4935984;29;19911;-78
2021/12/27 01:00:54;;;;;;;;;;;-0.90;99.90;;;;;;4952735;29;19949;-80
2021/12/27 01:03:20;;;;;;;;;;;-0.90;99.90;;;;;;4952783;29;19922;-79
2021/12/27 01:05:46;;;;;;;;;;;-0.90;99.90;;;;;;4953115;28;19918;-79
2021/12/27 01:08:12;;;;;;;;;;;-0.90;99.90;;;;;;4956829;28;19921;-80
2021/12/27 01:13:22;;;;;;;;;;;-0.90;99.90;;;;;;4967673;28;19962;-80
2021/12/27 01:16:02;;;;;;;;;;;-0.90;99.90;;;;;;4975433;28;20009;-80
2021/12/27 01:18:27;;;;;;;;;;;-1.00;99.90;;;;;;4963251;28;20299;-80
2021/12/27 01:20:53;;;;;;;;;;;-0.90;99.90;;;;;;4962315;28;19918;-79
2021/12/27 01:23:19;;;;;;;;;;;-1.00;99.90;;;;;;4958510;28;20340;-79
2021/12/27 01:25:44;;;;;;;;;;;-0.90;99.90;;;;;;4980058;28;19929;-79
2021/12/27 01:28:10;;;;;;;;;;;-0.90;99.90;;;;;;4957955;28;19914;-79
2021/12/27 01:30:45;;;;;;;;;;;-0.90;99.90;;;;;;4960801;28;20439;-80
2021/12/27 01:33:10;;;;;;;;;;;-0.90;99.90;;;;;;4965635;28;20273;-80
2021/12/27 01:35:37;;;;;;;;;;;-0.90;99.90;;;;;;4966165;28;19933;-79
2021/12/27 01:38:02;;;;;;;;;;;-1.00;99.90;;;;;;4985135;28;19919;-80
2021/12/27 01:40:28;;;;;;;;;;;-1.00;99.90;;;;;;4974119;28;19915;-79
2021/12/27 01:43:01;;;;;;;;;;;-1.00;99.90;;;;;;4952071;28;20459;-80
2021/12/27 01:45:27;;;;;;;;;;;-1.00;99.90;;;;;;4935471;29;19921;-80
2021/12/27 01:47:52;;;;;;;;;;;-1.00;99.90;;;;;;4967949;28;19915;-80
2021/12/27 01:50:18;;;;;;;;;;;-1.00;99.90;;;;;;4951049;28;19926;-80
2021/12/27 01:52:44;;;;;;;;;;;-1.00;99.90;;;;;;4952055;28;19982;-80
2021/12/27 01:55:09;;;;;;;;;;;-0.90;99.90;;;;;;4957677;28;19929;-80
2021/12/27 01:57:35;;;;;;;;;;;-1.00;99.90;;;;;;4951252;28;19921;-79
2021/12/27 02:00:00;;;;;;;;;;;-1.00;99.90;;;;;;4949318;28;19919;-80
2021/12/27 02:02:26;;;;;;;;;;;-0.90;99.90;;;;;;4948702;28;20056;-81
2021/12/27 02:04:52;;;;;;;;;;;-0.90;99.90;;;;;;4940394;28;20411;-80
2021/12/27 02:07:17;;;;;;;;;;;-0.80;99.90;;;;;;4962356;28;19919;-80
2021/12/27 02:09:54;;;;;;;;;;;-0.80;99.90;;;;;;4974361;28;19946;-80
2021/12/27 02:12:20;;;;;;;;;;;-0.80;99.90;;;;;;4959903;28;20448;-79
2021/12/27 02:14:45;;;;;;;;;;;-0.70;99.90;;;;;;4954701;28;20061;-79
2021/12/27 02:17:11;;;;;;;;;;;-0.70;99.90;;;;;;4964171;28;19923;-80
2021/12/27 02:19:37;;;;;;;;;;;-0.70;99.90;;;;;;4961910;28;20504;-80
2021/12/27 02:22:03;;;;;;;;;;;-0.70;99.90;;;;;;4966909;28;19984;-81
2021/12/27 02:24:29;;;;;;;;;;;-0.70;99.90;;;;;;4953277;28;20025;-80
2021/12/27 02:26:54;;;;;;;;;;;-0.70;99.90;;;;;;4935868;28;20058;-81
2021/12/27 02:29:20;;;;;;;;;;;-0.60;99.90;;;;;;4959066;28;19941;-80
2021/12/27 02:31:47;;;;;;;;;;;-0.70;99.90;;;;;;4952241;28;19918;-79
2021/12/27 02:34:13;;;;;;;;;;;-0.60;99.90;;;;;;4957325;28;20005;-79
2021/12/27 02:36:38;;;;;;;;;;;-0.60;99.90;;;;;;4962415;28;19969;-81
2021/12/27 02:39:04;;;;;;;;;;;-0.60;99.90;;;;;;4956941;28;19918;-79
2021/12/27 02:41:30;;;;;;;;;;;-0.60;99.90;;;;;;4952909;29;19915;-80
2021/12/27 02:43:55;;;;;;;;;;;-0.60;99.90;;;;;;4966959;28;19915;-80
2021/12/27 02:46:21;;;;;;;;;;;-0.60;99.90;;;;;;4959089;28;19950;-79
2021/12/27 02:48:47;;;;;;;;;;;-0.60;99.90;;;;;;4954697;28;20599;-79
2021/12/27 02:51:14;;;;;;;;;;;-0.60;99.90;;;;;;4959166;28;19958;-79
2021/12/27 02:53:40;;;;;;;;;;;-0.60;99.90;;;;;;4971877;28;20408;-79
2021/12/27 02:56:06;;;;;;;;;;;-0.60;99.90;;;;;;4981523;28;19961;-81
2021/12/27 02:58:32;;;;;;;;;;;-0.70;99.90;;;;;;4962132;28;19926;-78
2021/12/27 03:01:04;;;;;;;;;;;-0.70;99.90;;;;;;4964677;28;19915;-80
2021/12/27 03:03:30;;;;;;;;;;;-0.70;99.90;;;;;;4930665;29;19918;-80
2021/12/27 03:05:55;;;;;;;;;;;-0.70;99.90;;;;;;4936719;28;19922;-79
2021/12/27 03:08:21;;;;;;;;;;;-0.70;99.90;;;;;;4971029;28;20284;-79
2021/12/27 03:10:52;;;;;;;;;;;-0.70;99.90;;;;;;4951732;28;19914;-79
2021/12/27 03:13:21;;;;;;;;;;;-0.70;99.90;;;;;;4965855;28;19922;-79
2021/12/27 03:15:53;;;;;;;;;;;-0.70;99.90;;;;;;4972737;28;20359;-79
2021/12/27 03:18:19;;;;;;;;;;;-0.70;99.90;;;;;;4963013;28;20364;-80
2021/12/27 03:20:45;;;;;;;;;;;-0.70;99.90;;;;;;4951437;28;19918;-80
2021/12/27 03:23:10;;;;;;;;;;;-0.70;99.90;;;;;;4958613;28;19914;-78
2021/12/27 03:25:36;;;;;;;;;;;-0.70;99.90;;;;;;4953722;28;20360;-80
2021/12/27 03:28:02;;;;;;;;;;;-0.70;99.90;;;;;;4954407;28;20424;-80
2021/12/27 03:30:28;;;;;;;;;;;-0.70;99.90;;;;;;4954434;28;19915;-80
2021/12/27 03:32:54;;;;;;;;;;;-0.70;99.90;;;;;;4969627;28;19918;-79
2021/12/27 03:35:26;;;;;;;;;;;-0.70;99.90;;;;;;4969343;28;19925;-79
2021/12/27 03:37:57;;;;;;;;;;;-0.70;99.90;;;;;;4954820;28;20359;-79
2021/12/27 03:40:24;;;;;;;;;;;-0.70;99.90;;;;;;4958168;28;19925;-80
2021/12/27 03:42:50;;;;;;;;;;;-0.80;99.90;;;;;;4954291;28;19969;-80
2021/12/27 03:45:20;;;;;;;;;;;-0.70;99.90;;;;;;4966784;28;20416;-80
2021/12/27 03:47:46;;;;;;;;;;;-0.70;99.90;;;;;;4959959;28;20013;-80
2021/12/27 03:50:11;;;;;;;;;;;-0.70;99.90;;;;;;4955861;28;19957;-79
2021/12/27 03:52:37;;;;;;;;;;;-0.70;99.90;;;;;;4970251;28;19953;-80
2021/12/27 03:55:04;;;;;;;;;;;-0.70;99.90;;;;;;4954041;29;19977;-80
2021/12/27 03:57:32;;;;;;;;;;;-0.70;99.90;;;;;;4969573;28;19914;-80
2021/12/27 04:02:51;;;;;;;;;;;-0.80;99.90;;;;;;4927741;29;20377;-79
2021/12/27 04:05:17;;;;;;;;;;;-0.80;99.90;;;;;;4950736;28;19922;-80
2021/12/27 04:07:45;;;;;;;;;;;-0.80;99.90;;;;;;4948921;28;19958;-79
2021/12/27 04:10:11;;;;;;;;;;;-0.80;99.90;;;;;;4950037;29;19922;-79
2021/12/27 04:12:37;;;;;;;;;;;-0.80;99.90;;;;;;4953958;28;19921;-80
2021/12/27 04:15:03;;;;;;;;;;;-0.70;99.90;;;;;;4953272;29;19919;-81
2021/12/27 04:17:29;;;;;;;;;;;-0.70;99.90;;;;;;4969606;28;19926;-80
2021/12/27 04:19:54;;;;;;;;;;;-0.70;99.90;;;;;;4969153;28;19915;-80
2021/12/27 04:22:20;;;;;;;;;;;-0.70;99.90;;;;;;4953539;28;20065;-78
2021/12/27 04:24:46;;;;;;;;;;;-0.70;99.90;;;;;;4954026;28;19927;-80
2021/12/27 04:27:11;;;;;;;;;;;-0.70;99.90;;;;;;4949858;28;19954;-80
2021/12/27 04:29:37;;;;;;;;;;;-0.70;99.90;;;;;;4957062;28;20452;-79
2021/12/27 04:32:03;;;;;;;;;;;-0.60;99.90;;;;;;4963936;28;19994;-79
2021/12/27 04:34:28;;;;;;;;;;;-0.60;99.90;;;;;;4937568;29;19942;-80
2021/12/27 04:36:54;;;;;;;;;;;-0.60;99.90;;;;;;4969477;28;19969;-79
2021/12/27 04:39:19;;;;;;;;;;;-0.60;99.90;;;;;;4953689;28;19919;-79
2021/12/27 04:41:45;;;;;;;;;;;-0.60;99.90;;;;;;4965887;28;19938;-80
2021/12/27 04:44:11;;;;;;;;;;;-0.60;99.90;;;;;;4953605;28;19922;-79
2021/12/27 04:46:36;;;;;;;;;;;-0.50;99.90;;;;;;4949026;28;19929;-80
2021/12/27 04:49:02;;;;;;;;;;;-0.50;99.90;;;;;;4943116;29;19919;-80
2021/12/27 04:51:28;;;;;;;;;;;-0.50;99.90;;;;;;4969550;28;19961;-80
2021/12/27 04:53:54;;;;;;;;;;;-0.40;99.90;;;;;;4953331;28;20030;-80
2021/12/27 04:56:19;;;;;;;;;;;-0.40;99.90;;;;;;4938862;28;19926;-79
2021/12/27 04:58:46;;;;;;;;;;;-0.40;99.90;;;;;;4950122;28;19926;-80
2021/12/27 05:01:12;;;;;;;;;;;-0.40;99.90;;;;;;4950709;29;19922;-78
2021/12/27 05:03:38;;;;;;;;;;;-0.40;99.90;;;;;;4937779;29;19995;-79
2021/12/27 05:06:04;;;;;;;;;;;-0.40;99.90;;;;;;4979015;28;19945;-79
2021/12/27 05:08:29;;;;;;;;;;;-0.40;99.90;;;;;;4964633;28;20391;-79
2021/12/27 05:10:55;;;;;;;;;;;-0.40;99.90;;;;;;4948304;28;19970;-80
2021/12/27 05:13:20;;;;;;;;;;;-0.40;99.90;;;;;;4949683;28;19922;-79
2021/12/27 05:15:47;;;;;;;;;;;-0.40;99.90;;;;;;4975709;28;19922;-79
2021/12/27 05:18:12;;;;;;;;;;;-0.40;99.90;;;;;;4958499;28;19919;-79
2021/12/27 05:20:38;;;;;;;;;;;-0.40;99.90;;;;;;4949083;28;19970;-79
2021/12/27 05:23:04;;;;;;;;;;;-0.40;99.90;;;;;;4954047;28;19992;-80
2021/12/27 05:25:30;;;;;;;;;;;-0.40;99.90;;;;;;4956733;28;19925;-80
2021/12/27 05:27:55;;;;;;;;;;;-0.40;99.90;;;;;;4949872;28;20297;-79
2021/12/27 05:30:21;;;;;;;;;;;-0.40;99.90;;;;;;4949308;29;19981;-80
2021/12/27 05:32:47;;;;;;;;;;;-0.30;99.90;;;;;;4974344;28;20008;-79
2021/12/27 05:35:13;;;;;;;;;;;-0.40;99.90;;;;;;4969933;28;20016;-79
2021/12/27 05:37:39;;;;;;;;;;;-0.30;99.90;;;;;;4967458;28;19921;-79
2021/12/27 05:40:06;;;;;;;;;;;-0.30;99.90;;;;;;4968321;28;19914;-79
2021/12/27 05:42:33;;;;;;;;;;;-0.30;99.90;;;;;;4950847;29;20396;-79
2021/12/27 05:44:58;;;;;;;;;;;-0.20;99.90;;;;;;4969187;28;19922;-80
2021/12/27 05:47:24;;;;;;;;;;;-0.30;99.90;;;;;;4981559;28;20387;-78
2021/12/27 05:49:50;;;;;;;;;;;-0.20;99.90;;;;;;4977415;28;19918;-79
2021/12/27 05:52:15;;;;;;;;;;;-0.20;99.90;;;;;;4960273;28;19922;-79
2021/12/27 05:54:41;;;;;;;;;;;-0.10;99.90;;;;;;4953044;28;19970;-79
2021/12/27 05:57:06;;;;;;;;;;;-0.10;99.90;;;;;;4972279;28;19946;-79
2021/12/27 05:59:32;;;;;;;;;;;-0.10;99.90;;;;;;4975731;28;19926;-81
2021/12/27 06:01:57;;;;;;;;;;;-0.10;99.90;;;;;;4970824;28;19954;-80
2021/12/27 06:04:23;;;;;;;;;;;-0.10;99.90;;;;;;4954629;28;19954;-79
2021/12/27 06:06:49;;;;;;;;;;;-0.10;99.90;;;;;;4977450;28;19926;-80
2021/12/27 06:09:14;;;;;;;;;;;0.00;99.90;;;;;;4958291;28;20017;-81
2021/12/27 06:11:40;;;;;;;;;;;0.00;99.90;;;;;;4957689;29;19915;-81
2021/12/27 06:14:05;;;;;;;;;;;0.00;99.90;;;;;;4971271;28;19999;-81
2021/12/27 06:16:31;;;;;;;;;;;0.00;99.90;;;;;;4974439;28;19925;-80
2021/12/27 06:18:56;;;;;;;;;;;0.10;99.90;;;;;;4971044;28;20321;-81
2021/12/27 06:21:22;;;;;;;;;;;0.00;99.90;;;;;;4978128;28;19919;-81
2021/12/27 06:23:48;;;;;;;;;;;0.10;99.90;;;;;;4970918;28;19918;-80
2021/12/27 06:26:13;;;;;;;;;;;0.10;99.90;;;;;;4945512;29;19922;-81
2021/12/27 06:28:39;;;;;;;;;;;0.10;99.90;;;;;;4955662;28;19918;-81
2021/12/27 06:31:05;;;;;;;;;;;0.10;99.90;;;;;;4980641;28;19914;-80
2021/12/27 06:33:30;;;;;;;;;;;0.10;99.90;;;;;;4970865;28;19925;-80
2021/12/27 06:35:56;;;;;;;;;;;0.10;99.90;;;;;;4970077;28;20381;-79
2021/12/27 06:38:22;;;;;;;;;;;0.10;99.90;;;;;;4954184;28;19954;-79
2021/12/27 06:40:48;;;;;;;;;;;0.00;99.90;;;;;;4952598;29;20022;-81
2021/12/27 06:43:14;;;;;;;;;;;0.00;99.90;;;;;;4954479;29;20003;-81
2021/12/27 06:45:40;;;;;;;;;;;0.10;99.90;;;;;;4954195;28;20005;-81
2021/12/27 06:48:05;;;;;;;;;;;0.00;99.90;;;;;;4966642;28;19982;-80
2021/12/27 06:50:31;;;;;;;;;;;0.10;99.90;;;;;;4952752;28;19918;-80
2021/12/27 06:52:56;;;;;;;;;;;0.10;99.90;;;;;;4962806;28;19915;-81
2021/12/27 06:55:22;;;;;;;;;;;0.10;99.90;;;;;;4961889;28;19929;-79
2021/12/27 06:57:49;;;;;;;;;;;0.10;99.90;;;;;;4945865;29;19921;-81
2021/12/27 07:00:15;;;;;;;;;;;0.10;99.90;;;;;;4949793;29;19923;-79
2021/12/27 07:02:42;;;;;;;;;;;0.20;99.90;;;;;;4969994;28;20288;-80
2021/12/27 07:05:08;;;;;;;;;;;0.10;99.90;;;;;;4961713;28;20431;-80
2021/12/27 07:07:33;;;;;;;;;;;0.10;99.90;;;;;;4954326;28;19960;-78
2021/12/27 07:09:59;;;;;;;;;;;0.10;99.90;;;;;;4976015;28;19929;-80
2021/12/27 07:12:27;;;;;;;;;;;0.10;99.90;;;;;;4974174;28;20003;-78
2021/12/27 07:14:53;;;;;;;;;;;0.10;99.90;;;;;;4965628;28;20277;-79
2021/12/27 07:17:19;;;;;;;;;;;0.10;99.90;;;;;;4987169;28;19918;-80
2021/12/27 07:19:45;;;;;;;;;;;0.20;99.90;;;;;;4972800;28;19915;-81
2021/12/27 07:22:11;;;;;;;;;;;0.20;99.90;;;;;;4974832;28;19949;-80
2021/12/27 07:24:36;;;;;;;;;;;0.10;99.90;;;;;;4982239;28;19922;-81
2021/12/27 07:27:02;;;;;;;;;;;0.10;99.90;;;;;;4963701;28;20377;-79
2021/12/27 07:29:28;;;;;;;;;;;0.10;99.90;;;;;;4971730;28;19989;-82
2021/12/27 07:31:53;;;;;;;;;;;0.20;99.90;;;;;;4968716;28;19926;-80
2021/12/27 07:34:21;;;;;;;;;;;0.20;99.90;;;;;;4982281;28;19919;-81
2021/12/27 07:36:47;;;;;;;;;;;0.20;99.90;;;;;;4967548;28;19961;-81
2021/12/27 07:39:13;;;;;;;;;;;0.20;99.90;;;;;;4980811;28;19915;-81
2021/12/27 07:41:39;;;;;;;;;;;0.10;99.90;;;;;;4965662;28;19915;-82
2021/12/27 07:44:08;;;;;;;;;;;0.20;99.90;;;;;;4944076;28;20005;-81
2021/12/27 07:46:35;;;;;;;;;;;0.10;99.90;;;;;;4956423;28;19927;-81
2021/12/27 07:49:01;;;;;;;;;;;0.10;99.90;;;;;;4957821;28;20478;-81
2021/12/27 07:51:27;;;;;;;;;;;0.10;99.90;;;;;;4976976;28;19914;-81
2021/12/27 07:53:53;;;;;;;;;;;0.10;99.90;;;;;;4964162;28;19921;-81
2021/12/27 07:56:19;;;;;;;;;;;0.10;99.90;;;;;;4978036;28;19925;-80
2021/12/27 07:58:44;;;;;;;;;;;0.10;99.90;;;;;;4981344;28;19986;-80
2021/12/27 08:01:10;;;;;;;;;;;0.10;99.90;;;;;;4982660;28;19922;-82
2021/12/27 08:03:35;;;;;;;;;;;0.10;99.90;;;;;;4976590;28;19956;-82
2021/12/27 08:06:01;;;;;;;;;;;0.20;99.90;;;;;;4986417;28;19981;-80
2021/12/27 08:08:27;;;;;;;;;;;0.20;99.90;;;;;;4967513;28;19918;-81
2021/12/27 08:10:52;;;;;;;;;;;0.20;99.90;;;;;;4935727;28;19915;-80
2021/12/27 08:13:18;;;;;;;;;;;0.20;99.90;;;;;;4962690;28;20609;-80
2021/12/27 08:15:43;;;;;;;;;;;0.20;99.90;;;;;;4937878;28;19948;-78
2021/12/27 08:18:09;;;;;;;;;;;0.20;99.90;;;;;;4955102;28;19919;-79
2021/12/27 08:20:35;;;;;;;;;;;0.20;99.90;;;;;;4966145;28;19919;-79
2021/12/27 08:23:00;;;;;;;;;;;0.20;99.90;;;;;;4942547;28;20005;-80
2021/12/27 08:25:26;;;;;;;;;;;0.20;99.90;;;;;;4940893;28;20415;-80
2021/12/27 08:27:51;;;;;;;;;;;0.20;99.90;;;;;;4970958;28;19914;-79
2021/12/27 08:30:17;;;;;;;;;;;0.20;99.90;;;;;;4950168;28;19914;-78
2021/12/27 08:32:45;;;;;;;;;;;0.20;99.90;;;;;;4942215;28;19921;-78
2021/12/27 08:35:10;;;;;;;;;;;0.20;99.90;;;;;;4960391;28;19933;-78
2021/12/27 08:37:37;;;;;;;;;;;0.20;99.90;;;;;;4957222;28;19926;-78
2021/12/27 08:40:03;;;;;;;;;;;0.20;99.90;;;;;;4953709;28;19910;-79
2021/12/27 08:42:28;;;;;;;;;;;0.20;99.90;;;;;;4960930;28;20005;-79
2021/12/27 08:44:54;;;;;;;;;;;0.20;99.90;;;;;;4954555;28;20009;-80
2021/12/27 08:47:20;;;;;;;;;;;0.20;99.90;;;;;;4956276;28;19924;-78
2021/12/27 08:49:45;;;;;;;;;;;0.30;99.90;;;;;;4972416;28;20055;-80
2021/12/27 08:52:11;;;;;;;;;;;0.30;99.90;;;;;;4951411;28;20447;-78
2021/12/27 08:54:37;;;;;;;;;;;0.30;99.90;;;;;;4967947;28;19998;-79
2021/12/27 08:57:04;;;;;;;;;;;0.30;99.90;;;;;;4963831;28;19927;-79
2021/12/27 08:59:29;;;;;;;;;;;0.30;99.90;;;;;;4956401;28;19918;-79
2021/12/27 09:01:55;;;;;;;;;;;0.30;99.90;;;;;;4931364;28;19925;-78
2021/12/27 09:04:22;;;;;;;;;;;0.40;99.90;;;;;;4935698;28;19953;-77
2021/12/27 09:06:48;;;;;;;;;;;0.40;99.90;;;;;;4929506;29;19947;-78
2021/12/27 09:09:15;;;;;;;;;;;0.40;99.90;;;;;;4964134;28;19945;-80
2021/12/27 09:11:41;;;;;;;;;;;0.40;99.90;;;;;;4965298;28;19915;-78
2021/12/27 09:14:07;;;;;;;;;;;0.40;99.90;;;;;;4975618;28;20688;-79
2021/12/27 09:16:33;;;;;;;;;;;0.40;99.90;;;;;;4970158;28;19957;-80
2021/12/27 09:18:58;;;;;;;;;;;0.40;99.90;;;;;;4952540;28;20005;-77
2021/12/27 09:21:24;;;;;;;;;;;0.40;99.90;;;;;;4932403;28;20376;-78
2021/12/27 09:23:50;;;;;;;;;;;0.40;99.90;;;;;;4933915;28;20426;-79
2021/12/27 09:26:16;;;;;;;;;;;0.40;99.90;;;;;;4948699;28;20013;-79
2021/12/27 09:28:42;;;;;;;;;;;0.50;99.90;;;;;;4963600;28;20009;-78
2021/12/27 09:31:10;;;;;;;;;;;0.50;99.90;;;;;;4959617;28;20266;-78
2021/12/27 09:33:36;;;;;;;;;;;0.50;99.90;;;;;;4969304;28;19926;-78
2021/12/27 09:36:01;;;;;;;;;;;0.50;99.90;;;;;;4940351;28;19950;-79
2021/12/27 09:38:27;;;;;;;;;;;0.50;99.90;;;;;;4956269;28;19999;-77
2021/12/27 09:40:52;;;;;;;;;;;0.50;99.90;;;;;;4952152;28;20550;-79
2021/12/27 09:43:18;;;;;;;;;;;0.50;99.90;;;;;;4932089;28;19926;-76
2021/12/27 09:45:44;;;;;;;;;;;0.50;99.90;;;;;;4951467;28;19957;-79
2021/12/27 09:48:09;;;;;;;;;;;0.60;99.90;;;;;;4951751;28;20005;-80
2021/12/27 09:50:37;;;;;;;;;;;0.60;99.90;;;;;;4971432;28;19919;-80
2021/12/27 09:53:03;;;;;;;;;;;0.60;99.90;;;;;;4969065;28;19922;-78
2021/12/27 09:55:28;;;;;;;;;;;0.60;99.90;;;;;;4968167;28;20290;-79
2021/12/27 09:57:55;;;;;;;;;;;0.50;99.90;;;;;;4951860;28;19918;-78
2021/12/27 10:00:21;;;;;;;;;;;0.50;99.90;;;;;;4948767;28;19926;-78
2021/12/27 10:02:49;;;;;;;;;;;0.50;99.90;;;;;;4955148;28;19914;-78
2021/12/27 10:05:14;;;;;;;;;;;0.50;99.90;;;;;;4963718;28;20017;-78
2021/12/27 10:07:43;;;;;;;;;;;0.50;99.90;;;;;;4954528;28;19973;-79
2021/12/27 10:10:09;;;;;;;;;;;0.50;99.90;;;;;;4951413;28;19999;-80
2021/12/27 10:12:36;;;;;;;;;;;0.50;99.90;;;;;;4965789;28;19933;-77
2021/12/27 10:15:04;;;;;;;;;;;0.50;99.90;;;;;;4944887;28;20712;-77
2021/12/27 10:17:31;;;;;;;;;;;0.50;99.90;;;;;;4963603;28;19922;-79
2021/12/27 10:20:08;;;;;;;;;;;0.50;99.90;;;;;;4951554;28;20708;-80
2021/12/27 10:22:36;;;;;;;;;;;0.50;99.90;;;;;;4954406;28;19950;-77
2021/12/27 10:25:02;;;;;;;;;;;0.40;99.90;;;;;;4966804;28;19915;-78
2021/12/27 10:27:33;;;;;;;;;;;0.50;99.90;;;;;;4956313;28;19928;-79
2021/12/27 10:30:07;;;;;;;;;;;0.50;99.90;;;;;;4936149;28;19918;-78
2021/12/27 10:32:33;;;;;;;;;;;0.50;99.90;;;;;;4950760;28;19915;-76
2021/12/27 10:34:58;;;;;;;;;;;0.50;99.90;;;;;;4947365;28;20601;-77
2021/12/27 10:37:29;;;;;;;;;;;0.50;99.90;;;;;;4966153;28;19922;-77
2021/12/27 10:40:05;;;;;;;;;;;0.50;99.90;;;;;;4950360;28;19927;-77
2021/12/27 10:42:40;;;;;;;;;;;0.50;99.90;;;;;;4966798;28;19945;-79
2021/12/27 10:45:19;;;;;;;;;;;0.50;99.90;;;;;;4967585;28;20316;-78
2021/12/27 10:47:46;;;;;;;;;;;0.50;99.90;;;;;;4965220;28;19922;-78
2021/12/27 10:50:12;;;;;;;;;;;0.60;99.90;;;;;;4946179;28;19958;-75
2021/12/27 10:52:48;;;;;;;;;;;0.60;99.90;;;;;;4965881;28;19946;-78
2021/12/27 10:55:15;;;;;;;;;;;0.60;99.90;;;;;;4963293;28;19922;-78
2021/12/27 10:57:41;;;;;;;;;;;0.60;99.90;;;;;;4948483;28;19957;-78
2021/12/27 11:00:25;;;;;;;;;;;0.60;99.90;;;;;;4957686;28;19950;-78
2021/12/27 11:02:51;;;;;;;;;;;0.60;99.90;;;;;;4956849;28;19918;-78
2021/12/27 11:05:26;;;;;;;;;;;0.60;99.90;;;;;;4975241;28;19922;-78
2021/12/27 11:07:59;;;;;;;;;;;0.60;99.90;;;;;;4965720;28;19946;-79
2021/12/27 11:10:25;;;;;;;;;;;0.50;99.90;;;;;;4971102;28;20304;-77
2021/12/27 11:12:51;;;;;;;;;;;0.60;99.90;;;;;;4959654;28;19925;-79
2021/12/27 11:15:17;;;;;;;;;;;0.60;99.90;;;;;;4962640;28;19933;-77
2021/12/27 11:17:43;;;;;;;;;;;0.60;99.90;;;;;;4971421;28;19937;-81
2021/12/27 11:20:10;;;;;;;;;;;0.60;99.90;;;;;;4970420;28;19918;-78
2021/12/27 11:22:37;;;;;;;;;;;0.70;99.90;;;;;;4954520;28;19921;-77
2021/12/27 11:25:05;;;;;;;;;;;0.70;99.90;;;;;;4946973;28;19914;-79
2021/12/27 11:27:33;;;;;;;;;;;0.70;99.90;;;;;;4967381;28;19918;-78
2021/12/27 11:30:03;;;;;;;;;;;0.60;99.90;;;;;;4968585;28;19986;-78
2021/12/27 11:32:29;;;;;;;;;;;0.60;99.90;;;;;;4960035;28;20009;-78
2021/12/27 11:34:59;;;;;;;;;;;0.60;99.90;;;;;;4961006;28;19957;-81
2021/12/27 11:37:37;;;;;;;;;;;0.70;99.90;;;;;;4965503;28;19922;-81
2021/12/27 11:40:08;;;;;;;;;;;0.70;99.90;;;;;;4962931;28;19914;-77
2021/12/27 11:43:00;;;;;;;;;;;0.70;99.90;;;;;;4975839;28;19915;-79
2021/12/27 11:45:38;;;;;;;;;;;0.70;99.90;;;;;;4963859;28;19937;-80
2021/12/27 11:48:14;;;;;;;;;;;0.70;99.90;;;;;;4978464;28;19914;-80
2021/12/27 11:50:58;;;;;;;;;;;0.70;99.90;;;;;;4964651;28;19926;-80
2021/12/27 11:53:28;;;;;;;;;;;0.70;99.90;;;;;;4955201;28;20873;-83
2021/12/27 11:55:54;;;;;;;;;;;0.80;99.90;;;;;;4973265;28;20296;-78
2021/12/27 11:58:32;;;;;;;;;;;0.80;99.90;;;;;;4943700;28;20008;-81
2021/12/27 12:00:59;;;;;;;;;;;0.80;99.90;;;;;;4981431;28;19925;-79
2021/12/27 12:03:41;;;;;;;;;;;0.90;99.90;;;;;;4982020;28;19922;-78
2021/12/27 12:06:07;;;;;;;;;;;0.80;99.90;;;;;;4967820;28;19915;-79
2021/12/27 12:08:32;;;;;;;;;;;0.80;99.90;;;;;;4946639;28;19914;-80
2021/12/27 12:11:04;;;;;;;;;;;0.80;99.90;;;;;;4976181;28;20298;-80
2021/12/27 12:13:36;;;;;;;;;;;0.90;99.90;;;;;;4960267;28;20655;-80
2021/12/27 12:16:06;;;;;;;;;;;0.90;99.90;;;;;;4974717;28;19922;-78
2021/12/27 12:18:32;;;;;;;;;;;0.90;99.90;;;;;;4970560;28;19962;-79
2021/12/27 12:20:59;;;;;;;;;;;0.90;99.90;;;;;;4945779;28;20412;-79
2021/12/27 12:23:25;;;;;;;;;;;0.90;99.90;;;;;;4967566;28;19929;-79
2021/12/27 12:25:58;;;;;;;;;;;0.90;99.90;;;;;;4978227;28;19926;-79
2021/12/27 12:28:24;;;;;;;;;;;0.90;99.90;;;;;;4978677;28;19949;-77
2021/12/27 12:30:50;;;;;;;;;;;0.90;99.90;;;;;;4959464;28;20357;-78
2021/12/27 12:33:26;;;;;;;;;;;1.00;99.90;;;;;;4959670;28;19923;-78
2021/12/27 12:35:52;;;;;;;;;;;0.90;99.90;;;;;;4960379;28;20376;-78
2021/12/27 12:38:29;;;;;;;;;;;1.00;99.90;;;;;;4964501;28;19938;-78
2021/12/27 12:41:06;;;;;;;;;;;1.00;99.90;;;;;;4961381;28;20312;-80
2021/12/27 12:43:35;;;;;;;;;;;1.00;99.90;;;;;;4968917;28;20388;-79
2021/12/27 12:46:15;;;;;;;;;;;1.00;99.90;;;;;;4960770;28;19957;-79
2021/12/27 12:48:41;;;;;;;;;;;1.00;99.90;;;;;;4970912;28;19918;-80
2021/12/27 12:51:06;;;;;;;;;;;1.00;99.90;;;;;;4962590;28;19914;-80
2021/12/27 12:53:33;;;;;;;;;;;1.00;99.90;;;;;;4954830;29;19914;-78
2021/12/27 12:56:03;;;;;;;;;;;1.00;99.90;;;;;;4948189;28;19922;-80
2021/12/27 12:58:36;;;;;;;;;;;1.00;99.90;;;;;;4963675;28;20009;-79
2021/12/27 13:01:04;;;;;;;;;;;1.00;99.90;;;;;;4953981;28;20328;-76
2021/12/27 13:03:29;;;;;;;;;;;1.00;99.90;;;;;;4979471;28;19926;-78
2021/12/27 13:05:56;;;;;;;;;;;1.00;99.90;;;;;;4958577;28;19915;-79
2021/12/27 13:08:21;;;;;;;;;;;1.00;99.90;;;;;;4965004;28;19924;-77
2021/12/27 13:10:47;;;;;;;;;;;1.00;99.90;;;;;;4977307;28;20021;-77
2021/12/27 13:13:13;;;;;;;;;;;1.00;99.90;;;;;;4957226;28;19926;-78
2021/12/27 13:15:40;;;;;;;;;;;1.00;99.90;;;;;;4954755;28;20489;-79
2021/12/27 13:18:11;;;;;;;;;;;1.00;99.90;;;;;;4953247;28;19994;-78
2021/12/27 13:20:38;;;;;;;;;;;1.00;99.90;;;;;;4978473;28;20417;-78
2021/12/27 13:23:05;;;;;;;;;;;1.00;99.90;;;;;;4956342;28;19926;-77
2021/12/27 13:25:30;;;;;;;;;;;1.00;99.90;;;;;;4972596;28;19918;-77
2021/12/27 13:28:07;;;;;;;;;;;1.00;99.90;;;;;;4970262;28;20772;-76
2021/12/27 13:30:42;;;;;;;;;;;1.00;99.90;;;;;;4946252;28;20009;-78
2021/12/27 13:33:08;;;;;;;;;;;0.90;99.90;;;;;;4965304;28;19935;-77
2021/12/27 13:35:33;;;;;;;;;;;0.90;99.90;;;;;;4952428;28;20380;-76
2021/12/27 13:37:59;;;;;;;;;;;0.90;99.90;;;;;;4974875;28;19922;-77
2021/12/27 13:40:24;;;;;;;;;;;0.90;99.90;;;;;;4966679;28;19970;-79
2021/12/27 13:42:50;;;;;;;;;;;0.90;99.90;;;;;;4970660;28;19941;-78
2021/12/27 13:45:16;;;;;;;;;;;0.90;99.90;;;;;;4973603;28;19942;-78
2021/12/27 13:47:54;;;;;;;;;;;1.00;99.90;;;;;;4953013;28;19914;-78
2021/12/27 13:50:27;;;;;;;;;;;1.00;99.90;;;;;;4971751;28;19918;-78
2021/12/27 13:52:53;;;;;;;;;;;0.90;99.90;;;;;;4958662;28;19946;-78
2021/12/27 13:55:21;;;;;;;;;;;1.00;99.90;;;;;;4958578;28;19926;-77
2021/12/27 13:57:46;;;;;;;;;;;0.90;99.90;;;;;;4960681;28;20381;-77
2021/12/27 14:00:12;;;;;;;;;;;1.00;99.90;;;;;;4959360;28;20016;-77
2021/12/27 14:02:42;;;;;;;;;;;1.00;99.90;;;;;;4933942;29;19919;-78
2021/12/27 14:05:08;;;;;;;;;;;1.00;99.90;;;;;;4955345;28;20364;-78
2021/12/27 14:07:34;;;;;;;;;;;0.90;99.90;;;;;;4968480;28;19976;-77
2021/12/27 14:10:00;;;;;;;;;;;0.90;99.90;;;;;;4932456;29;19946;-78
2021/12/27 14:12:31;;;;;;;;;;;0.90;99.90;;;;;;4968445;28;20367;-77
2021/12/27 14:15:01;;;;;;;;;;;0.90;99.90;;;;;;4974951;28;19946;-78
2021/12/27 14:17:28;;;;;;;;;;;0.90;99.90;;;;;;4951255;28;19914;-77
2021/12/27 14:19:59;;;;;;;;;;;0.90;99.90;;;;;;4946812;28;19918;-77
2021/12/27 14:22:26;;;;;;;;;;;0.90;99.90;;;;;;4961364;28;19918;-77
2021/12/27 14:24:54;;;;;;;;;;;0.90;99.90;;;;;;4970121;28;20008;-78
2021/12/27 14:27:22;;;;;;;;;;;0.90;99.90;;;;;;4968966;28;19918;-78